Chemung, NY (14825)

6:58 PM EDT on August 21, 2014 (GMT -0400)
Walker Hill Rd | Change Station
CLOSE
Current Station
Personal Weather Station
Location: Waverly, NY
Elevation: 1358 ft
Nearby Weather Stations

Elev 1358 ft 42.04 °N, 76.54 °W | Updated 1 second ago

Overcast
Overcast
75.7 °F
Feels Like 77 °F
N
1.4
Wind Variable Wind from NNE
Gusts 1.4 mph

Today
High -- | Low -- °F
--% Chance of Precip.
Yesterday
High -- | Low -- °F
Precip. -- in
6:20 AM 7:57 PM
Waning Crescent, 12% visible
Pressure 29.94 in
Visibility 8.0 miles
Clouds Mostly Cloudy 5500 ft
Overcast 7500 ft
Heat Index 77 °F
Dew Point 66 °F
Humidity 73%
Rainfall 0.00 in
Snow Depth Not available.
UV 0.0 out of 12
Pollen 4.60 out of 12
Air Quality Not available.
Flu Activity Not available.
METAR KELM 212253Z 24004KT 8SM -TSRA BKN055 OVC075 24/21 A2996 RMK AO2 TSB46RAB40 SLP139 P0000 T02440206

More Conditions Fewer Conditions

Pressure 29.94 in
Visibility 8.0 miles
Clouds Mostly Cloudy 5500 ft
Overcast 7500 ft
Heat Index 77 °F
Dew Point 66 °F
Humidity 73%
Rainfall 0.00 in
Snow Depth Not available.
UV 0.0 out of 12
Pollen 4.60 out of 12
Air Quality Not available.
Flu Activity Not available.
METAR KELM 212253Z 24004KT 8SM -TSRA BKN055 OVC075 24/21 A2996 RMK AO2 TSB46RAB40 SLP139 P0000 T02440206

More Conditions Fewer Conditions

10-Day Weather Forecast

Almanac

Astronomy

Aug. 21, 2014 Rise Set
Actual Time 6:20 AM EDT 7:57 PM EDT
Civil Twilight 5:50 AM EDT 8:27 PM EDT
Nautical Twilight 5:15 AM EDT 9:03 PM EDT
Astronomical Twilight 4:36 AM EDT 9:41 PM EDT
Moon 2:47 AM EDT 5:26 PM EDT
Length of Visible Light 14h 36m
Length of Day
13h 37m
Tomorrow will be 2m 37s shorter.
Waning Crescent, 12% of the Moon is Illuminated
Today
Waning Crescent
Aug 25
New
Sep 2
First Quarter
Sep 8
Full
Sep 15
Last Quarter

Today's Extremes

State Highs State Lows

Community

WunderPhotos

Upload Photos

1,746,044 photos uploaded!

WunderBlogs® & News

Nearby

Air Quality

  Air Quality AQ Index Pollutant
Yesterday Good
PM2.5
Yesterday Good
OZONE
Thursday Moderate
OZONE
Thursday Good
PM2.5
Friday Good
OZONE
Friday Good
PM2.5

Snow Depth

Station Depth Elevation
No new snow has been reported.

Earthquake Activity

City Distance Mag. Time & Date
No recent earthquake activity has been reported nearby.
Minimum magnitude displayed is 2.5.

Coastal Water Temperatures

Place Temperature
No Stations Reporting

Nearby Weather Stations